sensor_id;sensor_type;location;lat;lon;timestamp;P1;durP1;ratioP1;P2;durP2;ratioP2
57947;SDS011;43754;56.992;24.292;2023-05-07T00:00:39;11.40;;;4.55;;
57947;SDS011;43754;56.992;24.292;2023-05-07T00:03:11;5.47;;;3.80;;
57947;SDS011;43754;56.992;24.292;2023-05-07T00:05:45;8.30;;;3.95;;
57947;SDS011;43754;56.992;24.292;2023-05-07T00:08:19;7.57;;;3.67;;
57947;SDS011;43754;56.992;24.292;2023-05-07T00:10:52;7.93;;;3.80;;
57947;SDS011;43754;56.992;24.292;2023-05-07T00:13:23;6.88;;;4.20;;
57947;SDS011;43754;56.992;24.292;2023-05-07T00:15:56;7.75;;;4.50;;
57947;SDS011;43754;56.992;24.292;2023-05-07T00:18:28;10.90;;;4.68;;
57947;SDS011;43754;56.992;24.292;2023-05-07T00:21:00;11.35;;;4.57;;
57947;SDS011;43754;56.992;24.292;2023-05-07T00:23:33;8.63;;;4.88;;
57947;SDS011;43754;56.992;24.292;2023-05-07T00:26:05;9.88;;;5.88;;
57947;SDS011;43754;56.992;24.292;2023-05-07T00:28:37;12.18;;;6.13;;
57947;SDS011;43754;56.992;24.292;2023-05-07T00:31:09;12.57;;;7.32;;
57947;SDS011;43754;56.992;24.292;2023-05-07T00:33:41;11.95;;;6.85;;
57947;SDS011;43754;56.992;24.292;2023-05-07T00:36:13;12.98;;;6.38;;
57947;SDS011;43754;56.992;24.292;2023-05-07T00:38:46;12.38;;;6.95;;
57947;SDS011;43754;56.992;24.292;2023-05-07T00:41:18;13.18;;;6.97;;
57947;SDS011;43754;56.992;24.292;2023-05-07T00:43:51;13.20;;;6.63;;
57947;SDS011;43754;56.992;24.292;2023-05-07T00:46:23;14.55;;;6.40;;
57947;SDS011;43754;56.992;24.292;2023-05-07T00:48:55;16.73;;;7.05;;
57947;SDS011;43754;56.992;24.292;2023-05-07T00:51:28;13.02;;;5.85;;
57947;SDS011;43754;56.992;24.292;2023-05-07T00:54:03;10.77;;;6.25;;
57947;SDS011;43754;56.992;24.292;2023-05-07T00:56:35;11.35;;;5.75;;
57947;SDS011;43754;56.992;24.292;2023-05-07T00:59:09;14.27;;;5.40;;
57947;SDS011;43754;56.992;24.292;2023-05-07T01:01:42;9.00;;;5.07;;
57947;SDS011;43754;56.992;24.292;2023-05-07T01:04:14;11.10;;;5.18;;
57947;SDS011;43754;56.992;24.292;2023-05-07T01:06:46;9.55;;;4.55;;
57947;SDS011;43754;56.992;24.292;2023-05-07T01:09:20;9.80;;;4.45;;
57947;SDS011;43754;56.992;24.292;2023-05-07T01:11:53;7.70;;;4.30;;
57947;SDS011;43754;56.992;24.292;2023-05-07T01:14:25;6.90;;;3.83;;
57947;SDS011;43754;56.992;24.292;2023-05-07T01:16:58;6.75;;;3.72;;
57947;SDS011;43754;56.992;24.292;2023-05-07T01:19:30;5.10;;;2.92;;
57947;SDS011;43754;56.992;24.292;2023-05-07T01:22:06;10.15;;;3.75;;
57947;SDS011;43754;56.992;24.292;2023-05-07T01:24:50;11.70;;;3.60;;
57947;SDS011;43754;56.992;24.292;2023-05-07T01:27:22;9.73;;;4.00;;
57947;SDS011;43754;56.992;24.292;2023-05-07T01:29:56;9.85;;;4.13;;
57947;SDS011;43754;56.992;24.292;2023-05-07T01:32:29;6.72;;;3.90;;
57947;SDS011;43754;56.992;24.292;2023-05-07T01:35:07;9.05;;;3.75;;
57947;SDS011;43754;56.992;24.292;2023-05-07T01:37:43;6.25;;;3.47;;
57947;SDS011;43754;56.992;24.292;2023-05-07T01:40:17;9.70;;;4.22;;
57947;SDS011;43754;56.992;24.292;2023-05-07T01:42:50;11.60;;;4.32;;
57947;SDS011;43754;56.992;24.292;2023-05-07T01:45:22;7.32;;;3.85;;
57947;SDS011;43754;56.992;24.292;2023-05-07T01:47:55;8.80;;;4.82;;
57947;SDS011;43754;56.992;24.292;2023-05-07T01:50:28;7.38;;;3.88;;
57947;SDS011;43754;56.992;24.292;2023-05-07T01:53:00;6.97;;;3.72;;
57947;SDS011;43754;56.992;24.292;2023-05-07T01:55:35;10.27;;;4.18;;
57947;SDS011;43754;56.992;24.292;2023-05-07T01:58:08;9.00;;;4.28;;
57947;SDS011;43754;56.992;24.292;2023-05-07T02:00:40;9.27;;;5.25;;
57947;SDS011;43754;56.992;24.292;2023-05-07T02:03:13;11.50;;;4.75;;
57947;SDS011;43754;56.992;24.292;2023-05-07T02:05:53;11.48;;;4.22;;
57947;SDS011;43754;56.992;24.292;2023-05-07T02:08:37;8.43;;;4.10;;
57947;SDS011;43754;56.992;24.292;2023-05-07T02:11:11;7.13;;;4.25;;
57947;SDS011;43754;56.992;24.292;2023-05-07T02:13:43;6.93;;;3.65;;
57947;SDS011;43754;56.992;24.292;2023-05-07T02:16:15;6.55;;;3.35;;
57947;SDS011;43754;56.992;24.292;2023-05-07T02:18:47;9.88;;;3.90;;
57947;SDS011;43754;56.992;24.292;2023-05-07T02:21:19;7.00;;;3.60;;
57947;SDS011;43754;56.992;24.292;2023-05-07T02:23:52;8.27;;;4.25;;
57947;SDS011;43754;56.992;24.292;2023-05-07T02:26:25;6.95;;;3.80;;
57947;SDS011;43754;56.992;24.292;2023-05-07T02:28:57;7.38;;;3.72;;
57947;SDS011;43754;56.992;24.292;2023-05-07T02:31:29;10.70;;;3.67;;
57947;SDS011;43754;56.992;24.292;2023-05-07T02:34:01;6.68;;;3.75;;
57947;SDS011;43754;56.992;24.292;2023-05-07T02:36:34;9.68;;;5.18;;
57947;SDS011;43754;56.992;24.292;2023-05-07T02:39:14;8.73;;;4.85;;
57947;SDS011;43754;56.992;24.292;2023-05-07T02:41:48;8.18;;;5.22;;
57947;SDS011;43754;56.992;24.292;2023-05-07T02:44:20;10.57;;;5.78;;
57947;SDS011;43754;56.992;24.292;2023-05-07T02:46:54;10.43;;;4.80;;
57947;SDS011;43754;56.992;24.292;2023-05-07T02:49:26;10.98;;;5.10;;
57947;SDS011;43754;56.992;24.292;2023-05-07T02:51:58;9.77;;;4.10;;
57947;SDS011;43754;56.992;24.292;2023-05-07T02:54:30;8.18;;;3.90;;
57947;SDS011;43754;56.992;24.292;2023-05-07T02:57:04;8.88;;;4.00;;
57947;SDS011;43754;56.992;24.292;2023-05-07T02:59:36;7.40;;;4.50;;
57947;SDS011;43754;56.992;24.292;2023-05-07T03:02:09;8.35;;;4.85;;
57947;SDS011;43754;56.992;24.292;2023-05-07T03:04:41;8.73;;;5.35;;
57947;SDS011;43754;56.992;24.292;2023-05-07T03:07:13;10.55;;;6.18;;
57947;SDS011;43754;56.992;24.292;2023-05-07T03:09:46;15.00;;;6.72;;
57947;SDS011;43754;56.992;24.292;2023-05-07T03:12:19;12.02;;;6.75;;
57947;SDS011;43754;56.992;24.292;2023-05-07T03:14:51;14.40;;;6.43;;
57947;SDS011;43754;56.992;24.292;2023-05-07T03:17:23;12.73;;;6.25;;
57947;SDS011;43754;56.992;24.292;2023-05-07T03:19:55;13.88;;;6.75;;
57947;SDS011;43754;56.992;24.292;2023-05-07T03:22:27;12.27;;;6.40;;
57947;SDS011;43754;56.992;24.292;2023-05-07T03:24:59;15.80;;;7.50;;
57947;SDS011;43754;56.992;24.292;2023-05-07T03:27:33;11.05;;;6.43;;
57947;SDS011;43754;56.992;24.292;2023-05-07T03:30:07;15.85;;;7.10;;
57947;SDS011;43754;56.992;24.292;2023-05-07T03:32:40;19.60;;;8.85;;
57947;SDS011;43754;56.992;24.292;2023-05-07T03:35:15;24.52;;;13.05;;
57947;SDS011;43754;56.992;24.292;2023-05-07T03:37:47;26.60;;;13.68;;
57947;SDS011;43754;56.992;24.292;2023-05-07T03:40:19;26.05;;;13.07;;
57947;SDS011;43754;56.992;24.292;2023-05-07T03:42:57;28.17;;;12.73;;
57947;SDS011;43754;56.992;24.292;2023-05-07T03:45:30;24.02;;;13.35;;
57947;SDS011;43754;56.992;24.292;2023-05-07T03:48:13;23.17;;;11.77;;
57947;SDS011;43754;56.992;24.292;2023-05-07T03:50:46;23.02;;;11.93;;
57947;SDS011;43754;56.992;24.292;2023-05-07T03:53:21;21.33;;;11.45;;
57947;SDS011;43754;56.992;24.292;2023-05-07T03:55:53;17.98;;;10.00;;
57947;SDS011;43754;56.992;24.292;2023-05-07T03:58:27;12.13;;;5.90;;
57947;SDS011;43754;56.992;24.292;2023-05-07T04:01:03;10.98;;;5.47;;
57947;SDS011;43754;56.992;24.292;2023-05-07T04:03:35;16.30;;;7.75;;
57947;SDS011;43754;56.992;24.292;2023-05-07T04:06:08;12.35;;;6.18;;
57947;SDS011;43754;56.992;24.292;2023-05-07T04:08:40;12.77;;;6.53;;
57947;SDS011;43754;56.992;24.292;2023-05-07T04:11:12;8.93;;;5.07;;
57947;SDS011;43754;56.992;24.292;2023-05-07T04:13:46;25.33;;;8.48;;
57947;SDS011;43754;56.992;24.292;2023-05-07T04:16:23;20.83;;;6.20;;
57947;SDS011;43754;56.992;24.292;2023-05-07T04:18:55;18.67;;;6.93;;
57947;SDS011;43754;56.992;24.292;2023-05-07T04:21:27;24.75;;;8.05;;
57947;SDS011;43754;56.992;24.292;2023-05-07T04:24:00;18.98;;;5.35;;
57947;SDS011;43754;56.992;24.292;2023-05-07T04:26:32;16.27;;;5.95;;
57947;SDS011;43754;56.992;24.292;2023-05-07T04:29:06;15.27;;;6.07;;
57947;SDS011;43754;56.992;24.292;2023-05-07T04:31:38;13.30;;;6.10;;
57947;SDS011;43754;56.992;24.292;2023-05-07T04:34:10;5.72;;;3.20;;
57947;SDS011;43754;56.992;24.292;2023-05-07T04:36:43;9.98;;;3.95;;
57947;SDS011;43754;56.992;24.292;2023-05-07T04:39:17;9.05;;;4.80;;
57947;SDS011;43754;56.992;24.292;2023-05-07T04:41:51;9.18;;;4.03;;
57947;SDS011;43754;56.992;24.292;2023-05-07T04:44:25;7.18;;;3.22;;
57947;SDS011;43754;56.992;24.292;2023-05-07T04:46:58;8.07;;;3.10;;
57947;SDS011;43754;56.992;24.292;2023-05-07T04:49:30;5.97;;;2.70;;
57947;SDS011;43754;56.992;24.292;2023-05-07T04:52:03;6.50;;;3.45;;
57947;SDS011;43754;56.992;24.292;2023-05-07T04:54:36;6.75;;;3.25;;
57947;SDS011;43754;56.992;24.292;2023-05-07T04:57:09;7.68;;;4.00;;
57947;SDS011;43754;56.992;24.292;2023-05-07T04:59:42;9.45;;;3.65;;
57947;SDS011;43754;56.992;24.292;2023-05-07T05:02:15;17.70;;;7.85;;
57947;SDS011;43754;56.992;24.292;2023-05-07T05:04:51;7.07;;;4.00;;
57947;SDS011;43754;56.992;24.292;2023-05-07T05:07:23;13.57;;;5.50;;
57947;SDS011;43754;56.992;24.292;2023-05-07T05:09:55;12.98;;;5.90;;
57947;SDS011;43754;56.992;24.292;2023-05-07T05:12:29;6.65;;;4.03;;
57947;SDS011;43754;56.992;24.292;2023-05-07T05:15:05;4.97;;;2.72;;
57947;SDS011;43754;56.992;24.292;2023-05-07T05:17:38;4.22;;;2.70;;
57947;SDS011;43754;56.992;24.292;2023-05-07T05:20:11;6.32;;;2.90;;
57947;SDS011;43754;56.992;24.292;2023-05-07T05:22:45;4.40;;;2.53;;
57947;SDS011;43754;56.992;24.292;2023-05-07T05:25:17;7.55;;;2.20;;
57947;SDS011;43754;56.992;24.292;2023-05-07T05:27:50;3.17;;;2.10;;
57947;SDS011;43754;56.992;24.292;2023-05-07T05:30:24;5.68;;;2.72;;
57947;SDS011;43754;56.992;24.292;2023-05-07T05:32:56;5.57;;;2.53;;
57947;SDS011;43754;56.992;24.292;2023-05-07T05:35:30;3.15;;;2.38;;
57947;SDS011;43754;56.992;24.292;2023-05-07T05:38:07;8.65;;;2.35;;
57947;SDS011;43754;56.992;24.292;2023-05-07T05:40:39;4.85;;;2.78;;
57947;SDS011;43754;56.992;24.292;2023-05-07T05:43:11;5.35;;;2.58;;
57947;SDS011;43754;56.992;24.292;2023-05-07T05:45:45;6.75;;;2.17;;
57947;SDS011;43754;56.992;24.292;2023-05-07T05:48:17;5.80;;;2.20;;
57947;SDS011;43754;56.992;24.292;2023-05-07T05:50:49;2.38;;;1.85;;
57947;SDS011;43754;56.992;24.292;2023-05-07T05:53:22;4.07;;;2.47;;
57947;SDS011;43754;56.992;24.292;2023-05-07T05:55:54;3.33;;;2.05;;
57947;SDS011;43754;56.992;24.292;2023-05-07T05:58:26;7.55;;;2.40;;
57947;SDS011;43754;56.992;24.292;2023-05-07T06:01:05;4.10;;;2.05;;
57947;SDS011;43754;56.992;24.292;2023-05-07T06:03:40;3.28;;;2.53;;
57947;SDS011;43754;56.992;24.292;2023-05-07T06:06:17;5.28;;;2.25;;
57947;SDS011;43754;56.992;24.292;2023-05-07T06:08:50;4.45;;;2.30;;
57947;SDS011;43754;56.992;24.292;2023-05-07T06:11:26;5.85;;;2.47;;
57947;SDS011;43754;56.992;24.292;2023-05-07T06:13:58;6.38;;;2.60;;
57947;SDS011;43754;56.992;24.292;2023-05-07T06:16:33;4.50;;;2.35;;
57947;SDS011;43754;56.992;24.292;2023-05-07T06:19:06;4.32;;;2.28;;
57947;SDS011;43754;56.992;24.292;2023-05-07T06:21:38;5.88;;;2.70;;
57947;SDS011;43754;56.992;24.292;2023-05-07T06:24:11;3.97;;;2.30;;
57947;SDS011;43754;56.992;24.292;2023-05-07T06:26:43;3.92;;;2.08;;
57947;SDS011;43754;56.992;24.292;2023-05-07T06:29:17;5.13;;;2.90;;
57947;SDS011;43754;56.992;24.292;2023-05-07T06:31:51;3.72;;;2.38;;
57947;SDS011;43754;56.992;24.292;2023-05-07T06:34:23;5.57;;;2.10;;
57947;SDS011;43754;56.992;24.292;2023-05-07T06:36:55;4.60;;;2.70;;
57947;SDS011;43754;56.992;24.292;2023-05-07T06:39:37;10.02;;;3.70;;
57947;SDS011;43754;56.992;24.292;2023-05-07T06:42:09;8.68;;;2.50;;
57947;SDS011;43754;56.992;24.292;2023-05-07T06:44:45;2.70;;;2.03;;
57947;SDS011;43754;56.992;24.292;2023-05-07T06:47:21;5.22;;;1.80;;
57947;SDS011;43754;56.992;24.292;2023-05-07T06:49:56;3.25;;;2.33;;
57947;SDS011;43754;56.992;24.292;2023-05-07T06:52:31;7.75;;;1.85;;
57947;SDS011;43754;56.992;24.292;2023-05-07T06:55:04;6.18;;;2.97;;
57947;SDS011;43754;56.992;24.292;2023-05-07T06:57:37;3.72;;;1.90;;
57947;SDS011;43754;56.992;24.292;2023-05-07T07:00:10;2.75;;;1.52;;
57947;SDS011;43754;56.992;24.292;2023-05-07T07:02:52;3.65;;;1.17;;
57947;SDS011;43754;56.992;24.292;2023-05-07T07:05:27;2.05;;;1.17;;
57947;SDS011;43754;56.992;24.292;2023-05-07T07:08:01;2.70;;;1.30;;
57947;SDS011;43754;56.992;24.292;2023-05-07T07:10:33;5.03;;;1.60;;
57947;SDS011;43754;56.992;24.292;2023-05-07T07:13:06;4.82;;;1.58;;
57947;SDS011;43754;56.992;24.292;2023-05-07T07:15:38;2.67;;;1.50;;
57947;SDS011;43754;56.992;24.292;2023-05-07T07:18:13;4.05;;;1.58;;
57947;SDS011;43754;56.992;24.292;2023-05-07T07:20:47;3.47;;;1.52;;
57947;SDS011;43754;56.992;24.292;2023-05-07T07:23:19;3.97;;;1.10;;
57947;SDS011;43754;56.992;24.292;2023-05-07T07:25:51;1.58;;;0.90;;
57947;SDS011;43754;56.992;24.292;2023-05-07T07:28:24;3.47;;;1.50;;
57947;SDS011;43754;56.992;24.292;2023-05-07T07:30:57;2.53;;;1.25;;
57947;SDS011;43754;56.992;24.292;2023-05-07T07:33:30;2.92;;;0.65;;
57947;SDS011;43754;56.992;24.292;2023-05-07T07:36:02;1.13;;;0.80;;
57947;SDS011;43754;56.992;24.292;2023-05-07T07:38:34;4.68;;;1.15;;
57947;SDS011;43754;56.992;24.292;2023-05-07T07:41:07;1.73;;;0.90;;
57947;SDS011;43754;56.992;24.292;2023-05-07T07:43:40;4.38;;;0.90;;
57947;SDS011;43754;56.992;24.292;2023-05-07T07:46:12;1.38;;;0.90;;
57947;SDS011;43754;56.992;24.292;2023-05-07T07:48:49;3.60;;;0.77;;
57947;SDS011;43754;56.992;24.292;2023-05-07T07:51:21;6.00;;;0.88;;
57947;SDS011;43754;56.992;24.292;2023-05-07T07:53:53;2.58;;;0.90;;
57947;SDS011;43754;56.992;24.292;2023-05-07T07:56:26;1.65;;;0.82;;
57947;SDS011;43754;56.992;24.292;2023-05-07T07:58:58;2.22;;;1.15;;
57947;SDS011;43754;56.992;24.292;2023-05-07T08:01:30;2.05;;;0.90;;
57947;SDS011;43754;56.992;24.292;2023-05-07T08:04:05;2.92;;;1.13;;
57947;SDS011;43754;56.992;24.292;2023-05-07T08:06:41;2.55;;;0.93;;
57947;SDS011;43754;56.992;24.292;2023-05-07T08:09:14;3.58;;;1.60;;
57947;SDS011;43754;56.992;24.292;2023-05-07T08:11:46;2.80;;;1.10;;
57947;SDS011;43754;56.992;24.292;2023-05-07T08:14:18;1.75;;;0.60;;
57947;SDS011;43754;56.992;24.292;2023-05-07T08:16:52;1.67;;;0.90;;
57947;SDS011;43754;56.992;24.292;2023-05-07T08:19:26;0.93;;;0.63;;
57947;SDS011;43754;56.992;24.292;2023-05-07T08:21:58;1.35;;;0.75;;
57947;SDS011;43754;56.992;24.292;2023-05-07T08:24:30;4.25;;;0.80;;
57947;SDS011;43754;56.992;24.292;2023-05-07T08:27:02;1.50;;;0.95;;
57947;SDS011;43754;56.992;24.292;2023-05-07T08:29:35;1.75;;;1.10;;
57947;SDS011;43754;56.992;24.292;2023-05-07T08:32:07;2.58;;;1.00;;
57947;SDS011;43754;56.992;24.292;2023-05-07T08:34:40;1.98;;;0.90;;
57947;SDS011;43754;56.992;24.292;2023-05-07T08:37:12;2.55;;;1.10;;
57947;SDS011;43754;56.992;24.292;2023-05-07T08:39:44;3.38;;;1.23;;
57947;SDS011;43754;56.992;24.292;2023-05-07T08:42:23;2.88;;;1.10;;
57947;SDS011;43754;56.992;24.292;2023-05-07T08:44:57;3.50;;;1.30;;
57947;SDS011;43754;56.992;24.292;2023-05-07T08:47:33;2.17;;;1.13;;
57947;SDS011;43754;56.992;24.292;2023-05-07T08:50:11;5.45;;;2.00;;
57947;SDS011;43754;56.992;24.292;2023-05-07T08:52:44;2.78;;;0.90;;
57947;SDS011;43754;56.992;24.292;2023-05-07T08:55:17;3.17;;;1.17;;
57947;SDS011;43754;56.992;24.292;2023-05-07T08:57:49;2.25;;;1.15;;
57947;SDS011;43754;56.992;24.292;2023-05-07T09:00:22;3.92;;;1.23;;
57947;SDS011;43754;56.992;24.292;2023-05-07T09:02:56;4.78;;;1.55;;
57947;SDS011;43754;56.992;24.292;2023-05-07T09:05:30;11.75;;;2.08;;
57947;SDS011;43754;56.992;24.292;2023-05-07T09:08:04;3.40;;;1.30;;
57947;SDS011;43754;56.992;24.292;2023-05-07T09:10:38;2.30;;;1.30;;
57947;SDS011;43754;56.992;24.292;2023-05-07T09:13:10;2.22;;;1.05;;
57947;SDS011;43754;56.992;24.292;2023-05-07T09:15:47;4.60;;;3.47;;
57947;SDS011;43754;56.992;24.292;2023-05-07T09:18:19;3.53;;;1.67;;
57947;SDS011;43754;56.992;24.292;2023-05-07T09:20:54;2.55;;;1.48;;
57947;SDS011;43754;56.992;24.292;2023-05-07T09:23:27;2.25;;;1.00;;
57947;SDS011;43754;56.992;24.292;2023-05-07T09:25:59;0.90;;;0.90;;
57947;SDS011;43754;56.992;24.292;2023-05-07T09:28:34;1.33;;;0.93;;
57947;SDS011;43754;56.992;24.292;2023-05-07T09:31:06;2.47;;;0.60;;
57947;SDS011;43754;56.992;24.292;2023-05-07T09:33:39;2.85;;;1.20;;
57947;SDS011;43754;56.992;24.292;2023-05-07T09:36:15;2.05;;;1.10;;
57947;SDS011;43754;56.992;24.292;2023-05-07T09:38:48;1.33;;;1.00;;
57947;SDS011;43754;56.992;24.292;2023-05-07T09:41:23;3.97;;;2.13;;
57947;SDS011;43754;56.992;24.292;2023-05-07T09:44:17;4.45;;;1.35;;
57947;SDS011;43754;56.992;24.292;2023-05-07T09:46:53;3.42;;;1.10;;
57947;SDS011;43754;56.992;24.292;2023-05-07T09:49:37;2.63;;;1.30;;
57947;SDS011;43754;56.992;24.292;2023-05-07T09:52:15;3.35;;;1.23;;
57947;SDS011;43754;56.992;24.292;2023-05-07T09:54:52;1.42;;;0.90;;
57947;SDS011;43754;56.992;24.292;2023-05-07T09:57:29;2.40;;;1.13;;
57947;SDS011;43754;56.992;24.292;2023-05-07T10:00:07;3.35;;;1.13;;
57947;SDS011;43754;56.992;24.292;2023-05-07T10:02:51;3.53;;;1.30;;
57947;SDS011;43754;56.992;24.292;2023-05-07T10:05:35;1.98;;;1.15;;
57947;SDS011;43754;56.992;24.292;2023-05-07T10:08:09;1.80;;;1.25;;
57947;SDS011;43754;56.992;24.292;2023-05-07T10:10:43;2.17;;;0.98;;
57947;SDS011;43754;56.992;24.292;2023-05-07T10:13:20;3.15;;;1.30;;
57947;SDS011;43754;56.992;24.292;2023-05-07T10:15:57;2.10;;;1.55;;
57947;SDS011;43754;56.992;24.292;2023-05-07T10:18:33;6.18;;;2.00;;
57947;SDS011;43754;56.992;24.292;2023-05-07T10:21:15;2.88;;;1.02;;
57947;SDS011;43754;56.992;24.292;2023-05-07T10:23:54;2.60;;;1.00;;
57947;SDS011;43754;56.992;24.292;2023-05-07T10:26:30;2.30;;;1.60;;
57947;SDS011;43754;56.992;24.292;2023-05-07T10:29:05;2.20;;;1.00;;
57947;SDS011;43754;56.992;24.292;2023-05-07T10:31:47;2.90;;;1.00;;
57947;SDS011;43754;56.992;24.292;2023-05-07T10:34:33;1.63;;;0.95;;
57947;SDS011;43754;56.992;24.292;2023-05-07T10:37:09;2.97;;;1.23;;
57947;SDS011;43754;56.992;24.292;2023-05-07T10:39:44;30.48;;;2.22;;
57947;SDS011;43754;56.992;24.292;2023-05-07T10:42:16;2.15;;;1.50;;
57947;SDS011;43754;56.992;24.292;2023-05-07T10:44:53;3.50;;;1.10;;
57947;SDS011;43754;56.992;24.292;2023-05-07T10:47:30;1.65;;;1.00;;
57947;SDS011;43754;56.992;24.292;2023-05-07T10:50:20;5.25;;;1.60;;
57947;SDS011;43754;56.992;24.292;2023-05-07T10:56:26;4.28;;;2.80;;
57947;SDS011;43754;56.992;24.292;2023-05-07T11:02:20;1.38;;;0.90;;
57947;SDS011;43754;56.992;24.292;2023-05-07T11:08:05;2.63;;;1.00;;
57947;SDS011;43754;56.992;24.292;2023-05-07T11:10:49;2.70;;;0.88;;
57947;SDS011;43754;56.992;24.292;2023-05-07T11:13:45;3.80;;;1.00;;
57947;SDS011;43754;56.992;24.292;2023-05-07T11:16:39;3.00;;;1.02;;
57947;SDS011;43754;56.992;24.292;2023-05-07T11:22:41;0.85;;;0.80;;
57947;SDS011;43754;56.992;24.292;2023-05-07T11:25:32;4.00;;;1.40;;
57947;SDS011;43754;56.992;24.292;2023-05-07T11:28:14;4.22;;;1.52;;
57947;SDS011;43754;56.992;24.292;2023-05-07T11:30:54;1.65;;;1.15;;
57947;SDS011;43754;56.992;24.292;2023-05-07T11:33:28;4.95;;;1.20;;
57947;SDS011;43754;56.992;24.292;2023-05-07T11:36:04;3.95;;;1.40;;
57947;SDS011;43754;56.992;24.292;2023-05-07T11:38:42;2.60;;;1.30;;
57947;SDS011;43754;56.992;24.292;2023-05-07T11:41:15;1.13;;;1.02;;
57947;SDS011;43754;56.992;24.292;2023-05-07T11:43:58;2.58;;;1.10;;
57947;SDS011;43754;56.992;24.292;2023-05-07T11:46:32;5.20;;;1.50;;
57947;SDS011;43754;56.992;24.292;2023-05-07T11:49:05;4.40;;;1.70;;
57947;SDS011;43754;56.992;24.292;2023-05-07T11:51:37;2.70;;;1.20;;
57947;SDS011;43754;56.992;24.292;2023-05-07T11:54:10;4.75;;;1.48;;
57947;SDS011;43754;56.992;24.292;2023-05-07T11:56:43;3.40;;;0.98;;
57947;SDS011;43754;56.992;24.292;2023-05-07T11:59:17;1.55;;;1.00;;
57947;SDS011;43754;56.992;24.292;2023-05-07T12:01:51;2.65;;;1.00;;
57947;SDS011;43754;56.992;24.292;2023-05-07T12:04:23;2.53;;;1.20;;
57947;SDS011;43754;56.992;24.292;2023-05-07T12:06:55;5.72;;;1.20;;
57947;SDS011;43754;56.992;24.292;2023-05-07T12:09:28;2.67;;;1.35;;
57947;SDS011;43754;56.992;24.292;2023-05-07T12:12:03;3.33;;;0.95;;
57947;SDS011;43754;56.992;24.292;2023-05-07T12:14:37;2.10;;;1.20;;
57947;SDS011;43754;56.992;24.292;2023-05-07T12:17:11;5.72;;;1.23;;
57947;SDS011;43754;56.992;24.292;2023-05-07T12:19:45;3.05;;;1.13;;
57947;SDS011;43754;56.992;24.292;2023-05-07T12:22:17;1.40;;;0.77;;
57947;SDS011;43754;56.992;24.292;2023-05-07T12:24:56;1.50;;;0.85;;
57947;SDS011;43754;56.992;24.292;2023-05-07T12:27:29;4.22;;;1.13;;
57947;SDS011;43754;56.992;24.292;2023-05-07T12:30:02;3.47;;;0.98;;
57947;SDS011;43754;56.992;24.292;2023-05-07T12:32:36;3.92;;;1.30;;
57947;SDS011;43754;56.992;24.292;2023-05-07T12:35:08;2.97;;;0.98;;
57947;SDS011;43754;56.992;24.292;2023-05-07T12:37:41;2.95;;;0.90;;
57947;SDS011;43754;56.992;24.292;2023-05-07T12:40:13;5.07;;;1.30;;
57947;SDS011;43754;56.992;24.292;2023-05-07T12:42:45;1.58;;;0.80;;
57947;SDS011;43754;56.992;24.292;2023-05-07T12:45:17;2.80;;;1.30;;
57947;SDS011;43754;56.992;24.292;2023-05-07T12:47:51;7.75;;;1.10;;
57947;SDS011;43754;56.992;24.292;2023-05-07T12:50:23;5.30;;;1.38;;
57947;SDS011;43754;56.992;24.292;2023-05-07T12:52:55;3.13;;;1.23;;
57947;SDS011;43754;56.992;24.292;2023-05-07T12:55:27;4.15;;;1.08;;
57947;SDS011;43754;56.992;24.292;2023-05-07T12:58:05;15.70;;;1.40;;
57947;SDS011;43754;56.992;24.292;2023-05-07T13:00:38;2.53;;;1.38;;
57947;SDS011;43754;56.992;24.292;2023-05-07T13:03:16;2.55;;;1.45;;
57947;SDS011;43754;56.992;24.292;2023-05-07T13:05:54;2.72;;;0.90;;
57947;SDS011;43754;56.992;24.292;2023-05-07T13:08:30;3.45;;;0.90;;
57947;SDS011;43754;56.992;24.292;2023-05-07T13:11:03;6.47;;;1.52;;
57947;SDS011;43754;56.992;24.292;2023-05-07T13:13:37;4.78;;;0.95;;
57947;SDS011;43754;56.992;24.292;2023-05-07T13:16:11;4.60;;;1.13;;
57947;SDS011;43754;56.992;24.292;2023-05-07T13:18:44;3.30;;;1.10;;
57947;SDS011;43754;56.992;24.292;2023-05-07T13:21:17;1.85;;;1.10;;
57947;SDS011;43754;56.992;24.292;2023-05-07T13:23:49;4.03;;;1.02;;
57947;SDS011;43754;56.992;24.292;2023-05-07T13:26:21;5.93;;;1.58;;
57947;SDS011;43754;56.992;24.292;2023-05-07T13:28:57;2.95;;;1.10;;
57947;SDS011;43754;56.992;24.292;2023-05-07T13:31:29;3.30;;;1.17;;
57947;SDS011;43754;56.992;24.292;2023-05-07T13:34:04;2.22;;;1.17;;
57947;SDS011;43754;56.992;24.292;2023-05-07T13:36:36;2.60;;;1.33;;
57947;SDS011;43754;56.992;24.292;2023-05-07T13:39:11;1.30;;;1.20;;
57947;SDS011;43754;56.992;24.292;2023-05-07T13:41:43;2.45;;;1.42;;
57947;SDS011;43754;56.992;24.292;2023-05-07T13:44:15;4.80;;;1.30;;
57947;SDS011;43754;56.992;24.292;2023-05-07T13:46:47;5.65;;;1.75;;
57947;SDS011;43754;56.992;24.292;2023-05-07T13:49:20;6.63;;;1.75;;
57947;SDS011;43754;56.992;24.292;2023-05-07T13:51:55;8.77;;;1.77;;
57947;SDS011;43754;56.992;24.292;2023-05-07T13:54:27;4.65;;;1.30;;
57947;SDS011;43754;56.992;24.292;2023-05-07T13:56:59;1.90;;;1.17;;
57947;SDS011;43754;56.992;24.292;2023-05-07T13:59:31;2.75;;;1.55;;
57947;SDS011;43754;56.992;24.292;2023-05-07T14:02:04;2.05;;;1.70;;
57947;SDS011;43754;56.992;24.292;2023-05-07T14:04:38;5.10;;;1.25;;
57947;SDS011;43754;56.992;24.292;2023-05-07T14:07:10;5.72;;;1.65;;
57947;SDS011;43754;56.992;24.292;2023-05-07T14:09:43;4.22;;;1.33;;
57947;SDS011;43754;56.992;24.292;2023-05-07T14:12:16;2.53;;;1.20;;
57947;SDS011;43754;56.992;24.292;2023-05-07T14:14:48;3.42;;;1.63;;
57947;SDS011;43754;56.992;24.292;2023-05-07T14:17:21;2.67;;;0.90;;
57947;SDS011;43754;56.992;24.292;2023-05-07T14:19:57;3.08;;;2.13;;
57947;SDS011;43754;56.992;24.292;2023-05-07T14:22:29;9.38;;;2.72;;
57947;SDS011;43754;56.992;24.292;2023-05-07T14:25:01;1.25;;;0.90;;
57947;SDS011;43754;56.992;24.292;2023-05-07T14:27:37;2.13;;;1.10;;
57947;SDS011;43754;56.992;24.292;2023-05-07T14:30:10;5.68;;;1.05;;
57947;SDS011;43754;56.992;24.292;2023-05-07T14:32:42;6.30;;;1.25;;
57947;SDS011;43754;56.992;24.292;2023-05-07T14:35:16;1.55;;;1.00;;
57947;SDS011;43754;56.992;24.292;2023-05-07T14:37:48;4.47;;;1.08;;
57947;SDS011;43754;56.992;24.292;2023-05-07T14:40:20;3.33;;;0.90;;
57947;SDS011;43754;56.992;24.292;2023-05-07T14:42:53;3.30;;;0.98;;
57947;SDS011;43754;56.992;24.292;2023-05-07T14:45:25;6.10;;;1.33;;
57947;SDS011;43754;56.992;24.292;2023-05-07T14:47:57;3.30;;;0.98;;
57947;SDS011;43754;56.992;24.292;2023-05-07T14:50:30;2.70;;;0.95;;
57947;SDS011;43754;56.992;24.292;2023-05-07T14:53:02;3.45;;;0.88;;
57947;SDS011;43754;56.992;24.292;2023-05-07T14:55:35;4.57;;;1.20;;
57947;SDS011;43754;56.992;24.292;2023-05-07T14:58:07;2.88;;;1.02;;
57947;SDS011;43754;56.992;24.292;2023-05-07T15:00:39;3.75;;;1.13;;
57947;SDS011;43754;56.992;24.292;2023-05-07T15:03:11;1.35;;;0.75;;
57947;SDS011;43754;56.992;24.292;2023-05-07T15:05:48;3.63;;;1.08;;
57947;SDS011;43754;56.992;24.292;2023-05-07T15:08:22;4.70;;;1.33;;
57947;SDS011;43754;56.992;24.292;2023-05-07T15:10:54;6.95;;;3.55;;
57947;SDS011;43754;56.992;24.292;2023-05-07T15:13:26;3.90;;;0.90;;
57947;SDS011;43754;56.992;24.292;2023-05-07T15:15:59;2.17;;;1.02;;
57947;SDS011;43754;56.992;24.292;2023-05-07T15:18:31;4.05;;;1.02;;
57947;SDS011;43754;56.992;24.292;2023-05-07T15:21:05;2.70;;;1.30;;
57947;SDS011;43754;56.992;24.292;2023-05-07T15:23:37;2.45;;;0.82;;